Station Historical Data
Daily Summary for July 3, 2017 Units:  English    Metric   Both
« Previous Day
Next Day »
Daily Weekly Monthly Yearly Custom
  High: Low: Average:
Temperature: 84.5 °F 71.4 °F 76.3 °F
Dew Point: 74.4 °F 68.3 °F 70.2 °F
Humidity: 92% 66% 82%
Wind Speed: 5.1mph 0.0mph 4.7mph
Wind Gust: 5.1mph - -
Wind- - SSE
Pressure: 30.11 in 30.03 in -
Precipitation: 0.00 in    
Historical Graphs
 
 
Tabular Data for July 3, 2017
Time Temperature Dew Point Pressure Wind Wind Speed Wind Gust Humidity Rainfall Rate (Hourly) solar Conditions
00:04 72.5 °F 68.7 °F 30.09 in North 5.1 mph   88% 0.00 in WeatherDisplay:10.37 W/m2 OVC
00:09 72.4 °F 68.6 °F 30.09 in North 5.1 mph   88% 0.00 in WeatherDisplay:10.37 W/m2 OVC
00:10 72.4 °F 68.6 °F 30.10 in North 5.1 mph   88% 0.00 in WeatherDisplay:10.37 W/m2 OVC
00:15 72.3 °F 68.5 °F 30.09 in North 5.1 mph   88% 0.00 in WeatherDisplay:10.37 W/m2 SCT
00:20 72.3 °F 68.5 °F 30.10 in North 5.1 mph   88% 0.00 in WeatherDisplay:10.37 W/m2 SCT
00:25 72.3 °F 68.5 °F 30.09 in North 5.1 mph   88% 0.00 in WeatherDisplay:10.37 W/m2 SCT
00:30 72.3 °F 68.5 °F 30.09 in North 5.1 mph   88% 0.00 in WeatherDisplay:10.37 W/m2 SCT
00:35 72.3 °F 68.5 °F 30.09 in North 5.1 mph   88% 0.00 in WeatherDisplay:10.37 W/m2 SCT
00:40 72.2 °F 68.4 °F 30.09 in North 5.1 mph   88% 0.00 in WeatherDisplay:10.37 W/m2 SCT
00:45 72.2 °F 68.4 °F 30.09 in North 5.1 mph   88% 0.00 in WeatherDisplay:10.37 W/m2 SCT
00:50 72.2 °F 68.4 °F 30.09 in North 5.1 mph   88% 0.00 in WeatherDisplay:10.37 W/m2 SCT
00:55 72.2 °F 68.4 °F 30.09 in North 5.1 mph   88% 0.00 in WeatherDisplay:10.37 W/m2 SCT
01:00 72.2 °F 68.4 °F 30.09 in North 5.1 mph   88% 0.00 in WeatherDisplay:10.37 W/m2 SCT
01:05 72.2 °F 68.8 °F 30.09 in North 5.1 mph   89% 0.00 in WeatherDisplay:10.37 W/m2 SCT
01:11 72.2 °F 68.8 °F 30.09 in North 5.1 mph   89% 0.00 in WeatherDisplay:10.37 W/m2 SCT
01:16 72.2 °F 68.8 °F 30.09 in North 5.1 mph   89% 0.00 in WeatherDisplay:10.37 W/m2 BKN
01:21 72.2 °F 68.8 °F 30.08 in North 5.1 mph   89% 0.00 in WeatherDisplay:10.37 W/m2 BKN
01:26 72.2 °F 68.8 °F 30.08 in North 5.1 mph   89% 0.00 in WeatherDisplay:10.37 W/m2 BKN
01:31 72.2 °F 68.8 °F 30.08 in North 5.1 mph   89% 0.00 in WeatherDisplay:10.37 W/m2 BKN
01:36 72.3 °F 68.9 °F 30.08 in North 5.1 mph   89% 0.00 in WeatherDisplay:10.37 W/m2 BKN
01:41 72.3 °F 68.9 °F 30.08 in North 5.1 mph   89% 0.00 in WeatherDisplay:10.37 W/m2 BKN
01:46 72.2 °F 68.8 °F 30.08 in North 5.1 mph   89% 0.00 in WeatherDisplay:10.37 W/m2 BKN
01:51 72.3 °F 68.9 °F 30.08 in North 5.1 mph   89% 0.00 in WeatherDisplay:10.37 W/m2 BKN
01:56 72.3 °F 68.9 °F 30.09 in North 5.1 mph   89% 0.00 in WeatherDisplay:10.37 W/m2 BKN
02:01 72.4 °F 69.0 °F 30.08 in North 5.1 mph   89% 0.00 in WeatherDisplay:10.37 W/m2 BKN
02:06 72.3 °F 68.9 °F 30.08 in North 5.1 mph   89% 0.00 in WeatherDisplay:10.37 W/m2 BKN
02:12 72.4 °F 69.0 °F 30.08 in North 5.1 mph   89% 0.00 in WeatherDisplay:10.37 W/m2 BKN
02:17 72.4 °F 69.0 °F 30.08 in North 5.1 mph   89% 0.00 in WeatherDisplay:10.37 W/m2 OVC
02:22 72.4 °F 69.0 °F 30.08 in North 5.1 mph   89% 0.00 in WeatherDisplay:10.37 W/m2 OVC
02:27 72.4 °F 69.0 °F 30.08 in North 5.1 mph   89% 0.00 in WeatherDisplay:10.37 W/m2 OVC
02:32 72.4 °F 69.3 °F 30.09 in North 5.1 mph   90% 0.00 in WeatherDisplay:10.37 W/m2 OVC
02:37 72.4 °F 69.3 °F 30.08 in North 5.1 mph   90% 0.00 in WeatherDisplay:10.37 W/m2 OVC
02:42 72.4 °F 69.3 °F 30.08 in North 5.1 mph   90% 0.00 in WeatherDisplay:10.37 W/m2 OVC
02:47 72.3 °F 69.2 °F 30.08 in North 5.1 mph   90% 0.00 in WeatherDisplay:10.37 W/m2 -DZ
02:52 72.3 °F 69.2 °F 30.08 in North 5.1 mph   90% 0.00 in WeatherDisplay:10.37 W/m2 -DZ
02:57 72.3 °F 69.2 °F 30.08 in North 5.1 mph   90% 0.00 in WeatherDisplay:10.37 W/m2 -DZ
03:02 72.3 °F 69.2 °F 30.08 in North 5.1 mph   90% 0.00 in WeatherDisplay:10.37 W/m2 -DZ
03:07 72.4 °F 69.6 °F 30.07 in North 5.1 mph   91% 0.00 in WeatherDisplay:10.37 W/m2 -DZ
03:12 72.3 °F 69.5 °F 30.07 in North 5.1 mph   91% 0.00 in WeatherDisplay:10.37 W/m2 -DZ
03:17 71.4 °F 68.3 °F 30.07 in North 5.1 mph   90% 0.00 in WeatherDisplay:10.37 W/m2 -RA
03:23 71.4 °F 68.3 °F 30.08 in North 5.1 mph   90% 0.00 in WeatherDisplay:10.37 W/m2 -RA
03:28 71.4 °F 68.3 °F 30.07 in North 5.1 mph   90% 0.00 in WeatherDisplay:10.37 W/m2 -RA
03:33 71.4 °F 68.3 °F 30.08 in North 5.1 mph   90% 0.00 in WeatherDisplay:10.37 W/m2 -RA
03:38 71.4 °F 68.3 °F 30.08 in North 5.1 mph   90% 0.00 in WeatherDisplay:10.37 W/m2 -RA
03:43 71.4 °F 68.3 °F 30.08 in North 5.1 mph   90% 0.00 in WeatherDisplay:10.37 W/m2 -RA
03:48 71.4 °F 68.3 °F 30.08 in North 5.1 mph   90% 0.00 in WeatherDisplay:10.37 W/m2 CLR
03:53 71.4 °F 68.3 °F 30.08 in North 5.1 mph   90% 0.00 in WeatherDisplay:10.37 W/m2 CLR
03:58 71.4 °F 68.3 °F 30.08 in North 5.1 mph   90% 0.00 in WeatherDisplay:10.37 W/m2 CLR
04:03 71.4 °F 68.3 °F 30.08 in North 5.1 mph   90% 0.00 in WeatherDisplay:10.37 W/m2 CLR
04:08 71.4 °F 68.3 °F 30.08 in North 5.1 mph   90% 0.00 in WeatherDisplay:10.37 W/m2 CLR
04:13 71.4 °F 68.3 °F 30.07 in North 5.1 mph   90% 0.00 in WeatherDisplay:10.37 W/m2 CLR
04:18 71.4 °F 68.3 °F 30.07 in North 5.1 mph   90% 0.00 in WeatherDisplay:10.37 W/m2 -RA
04:23 71.4 °F 68.3 °F 30.07 in North 5.1 mph   90% 0.00 in WeatherDisplay:10.37 W/m2 -RA
04:28 71.4 °F 68.3 °F 30.06 in North 5.1 mph   90% 0.00 in WeatherDisplay:10.37 W/m2 -RA
04:34 71.4 °F 68.3 °F 30.06 in North 5.1 mph   90% 0.00 in WeatherDisplay:10.37 W/m2 -RA
04:39 71.4 °F 68.3 °F 30.06 in North 5.1 mph   90% 0.00 in WeatherDisplay:10.37 W/m2 -RA
04:44 71.4 °F 68.3 °F 30.05 in North 5.1 mph   90% 0.00 in WeatherDisplay:10.37 W/m2 -RA
04:49 71.4 °F 68.3 °F 30.05 in North 5.1 mph   90% 0.00 in WeatherDisplay:10.37 W/m2 -RA
04:54 71.4 °F 68.3 °F 30.05 in North 5.1 mph   90% 0.00 in WeatherDisplay:10.37 W/m2 -RA
04:59 71.4 °F 68.3 °F 30.05 in North 5.1 mph   90% 0.00 in WeatherDisplay:10.37 W/m2 FEW
05:04 71.4 °F 68.3 °F 30.05 in North 5.1 mph   90% 0.00 in WeatherDisplay:10.37 W/m2 FEW
05:09 71.4 °F 68.3 °F 30.05 in North 5.1 mph   90% 0.00 in WeatherDisplay:10.37 W/m2 FEW
05:14 71.4 °F 68.3 °F 30.05 in North 5.1 mph   90% 0.00 in WeatherDisplay:10.37 W/m2 FEW
05:19 71.4 °F 68.3 °F 30.05 in North 5.1 mph   90% 0.00 in WeatherDisplay:10.37 W/m2 CLR
05:24 71.4 °F 68.3 °F 30.05 in North 5.1 mph   90% 0.00 in WeatherDisplay:10.37 W/m2 CLR
05:29 71.4 °F 68.3 °F 30.05 in North 5.1 mph   90% 0.00 in WeatherDisplay:10.37 W/m2 CLR
05:34 71.4 °F 68.3 °F 30.05 in North 5.1 mph   90% 0.00 in WeatherDisplay:10.37 W/m2 CLR
05:39 71.4 °F 68.3 °F 30.05 in North 5.1 mph   90% 0.00 in WeatherDisplay:10.37 W/m2 CLR
05:44 71.4 °F 68.3 °F 30.05 in North 5.1 mph   90% 0.00 in WeatherDisplay:10.37 W/m2 CLR
05:50 71.4 °F 68.3 °F 30.05 in North 5.1 mph   90% 0.00 in WeatherDisplay:10.37 W/m2 CLR
05:55 71.4 °F 68.3 °F 30.05 in North 5.1 mph   90% 0.00 in WeatherDisplay:10.37 W/m2 CLR
06:00 71.4 °F 68.3 °F 30.05 in Calm     90% 0.00 in WeatherDisplay:10.37 W/m2 CLR
06:05 71.4 °F 68.3 °F 30.05 in Calm     90% 0.00 in WeatherDisplay:10.37 W/m2 CLR
06:10 71.4 °F 68.3 °F 30.05 in Calm     90% 0.00 in WeatherDisplay:10.37 W/m2 CLR
06:15 71.4 °F 68.3 °F 30.06 in Calm     90% 0.00 in WeatherDisplay:10.37 W/m2 CLR
06:20 71.4 °F 68.3 °F 30.06 in North 5.1 mph   90% 0.00 in WeatherDisplay:10.37 W/m2 OVC
06:25 71.4 °F 68.3 °F 30.06 in North 5.1 mph   90% 0.00 in WeatherDisplay:10.37 W/m2 OVC
06:30 71.4 °F 68.3 °F 30.06 in Calm     90% 0.00 in WeatherDisplay:10.37 W/m2 OVC
06:35 71.4 °F 68.3 °F 30.06 in Calm     90% 0.00 in WeatherDisplay:10.37 W/m2 OVC
06:40 71.4 °F 68.3 °F 30.06 in Calm     90% 0.00 in WeatherDisplay:10.37 W/m2 OVC
06:45 71.4 °F 68.3 °F 30.06 in Calm     90% 0.00 in WeatherDisplay:10.37 W/m2 OVC
06:50 71.4 °F 68.3 °F 30.07 in Calm     90% 0.00 in WeatherDisplay:10.37 W/m2 BKN
06:55 71.4 °F 68.3 °F 30.07 in North 5.1 mph   90% 0.00 in WeatherDisplay:10.37 W/m2 BKN
07:00 71.4 °F 68.3 °F 30.07 in Calm     90% 0.00 in WeatherDisplay:10.37 W/m2 BKN
07:05 71.4 °F 68.3 °F 30.07 in Calm     90% 0.00 in WeatherDisplay:10.37 W/m2 BKN
07:10 71.4 °F 68.3 °F 30.07 in Calm     90% 0.00 in WeatherDisplay:10.37 W/m2 BKN
07:15 71.4 °F 68.3 °F 30.08 in North 5.1 mph   90% 0.00 in WeatherDisplay:10.37 W/m2 BKN
07:20 71.4 °F 68.3 °F 30.08 in North 5.1 mph   90% 0.00 in WeatherDisplay:10.37 W/m2 BKN
07:25 71.4 °F 68.3 °F 30.08 in North 5.1 mph   90% 0.00 in WeatherDisplay:10.37 W/m2 BKN
07:30 71.4 °F 68.3 °F 30.08 in North 5.1 mph   90% 0.00 in WeatherDisplay:10.37 W/m2 BKN
07:35 71.4 °F 68.3 °F 30.09 in North 5.1 mph   90% 0.00 in WeatherDisplay:10.37 W/m2 BKN
07:40 71.4 °F 68.3 °F 30.09 in North 5.1 mph   90% 0.00 in WeatherDisplay:10.37 W/m2 BKN
07:45 71.4 °F 68.3 °F 30.09 in North 5.1 mph   90% 0.00 in WeatherDisplay:10.37 W/m2 BKN
07:50 71.4 °F 68.3 °F 30.09 in North 5.1 mph   90% 0.00 in WeatherDisplay:10.37 W/m2 BKN
07:55 71.4 °F 68.3 °F 30.09 in North 5.1 mph   90% 0.00 in WeatherDisplay:10.37 W/m2 BKN
08:00 71.4 °F 68.3 °F 30.09 in North 5.1 mph   90% 0.00 in WeatherDisplay:10.37 W/m2 BKN
08:05 71.4 °F 68.3 °F 30.10 in North 5.1 mph   90% 0.00 in WeatherDisplay:10.37 W/m2 BKN
08:10 71.4 °F 68.3 °F 30.10 in North 5.1 mph   90% 0.00 in WeatherDisplay:10.37 W/m2 BKN
08:15 71.4 °F 68.3 °F 30.10 in North 5.1 mph   90% 0.00 in WeatherDisplay:10.37 W/m2 OVC
08:20 71.4 °F 68.3 °F 30.10 in North 5.1 mph   90% 0.00 in WeatherDisplay:10.37 W/m2 OVC
08:25 71.4 °F 68.3 °F 30.10 in North 5.1 mph   90% 0.00 in WeatherDisplay:10.37 W/m2 OVC
08:30 71.4 °F 68.3 °F 30.10 in North 5.1 mph   90% 0.00 in WeatherDisplay:10.37 W/m2 OVC
08:36 71.4 °F 68.3 °F 30.10 in North 5.1 mph   90% 0.00 in WeatherDisplay:10.37 W/m2 OVC
08:41 71.4 °F 68.3 °F 30.10 in North 5.1 mph   90% 0.00 in WeatherDisplay:10.37 W/m2 OVC
08:46 71.4 °F 68.3 °F 30.11 in North 5.1 mph   90% 0.00 in WeatherDisplay:10.37 W/m2 OVC
08:51 71.4 °F 68.3 °F 30.10 in North 5.1 mph   90% 0.00 in WeatherDisplay:10.37 W/m2 OVC
08:56 71.4 °F 68.3 °F 30.11 in North 5.1 mph   90% 0.00 in WeatherDisplay:10.37 W/m2 OVC
09:01 71.4 °F 68.3 °F 30.11 in North 5.1 mph   90% 0.00 in WeatherDisplay:10.37 W/m2 OVC
09:06 71.4 °F 68.3 °F 30.11 in North 5.1 mph   90% 0.00 in WeatherDisplay:10.37 W/m2 OVC
09:11 71.4 °F 68.3 °F 30.11 in North 5.1 mph   90% 0.00 in WeatherDisplay:10.37 W/m2 OVC
09:16 71.4 °F 68.3 °F 30.11 in North 5.1 mph   90% 0.00 in WeatherDisplay:10.37 W/m2 OVC
09:21 71.4 °F 68.3 °F 30.11 in North 5.1 mph   90% 0.00 in WeatherDisplay:10.37 W/m2 OVC
09:26 71.4 °F 68.3 °F 30.11 in North 5.1 mph   90% 0.00 in WeatherDisplay:10.37 W/m2 OVC
09:31 71.4 °F 68.3 °F 30.11 in North 5.1 mph   90% 0.00 in WeatherDisplay:10.37 W/m2 OVC
09:36 71.4 °F 68.3 °F 30.11 in North 5.1 mph   90% 0.00 in WeatherDisplay:10.37 W/m2 OVC
09:42 71.4 °F 68.3 °F 30.10 in North 5.1 mph   90% 0.00 in WeatherDisplay:10.37 W/m2 OVC
09:47 71.4 °F 68.3 °F 30.10 in North 5.1 mph   90% 0.00 in WeatherDisplay:10.37 W/m2 -RA
09:52 72.7 °F 70.2 °F 30.10 in NNW 5.1 mph   92% 0.00 in WeatherDisplay:10.37 W/m2 -RA
09:57 72.7 °F 69.9 °F 30.10 in NNW 5.1 mph   91% 0.00 in WeatherDisplay:10.37 W/m2 -RA
10:02 72.7 °F 70.2 °F 30.09 in NNW 5.1 mph   92% 0.00 in WeatherDisplay:10.37 W/m2 -RA
10:07 72.8 °F 70.3 °F 30.10 in NNW 5.1 mph   92% 0.00 in WeatherDisplay:10.37 W/m2 -RA
10:12 73.0 °F 70.5 °F 30.09 in NNW 5.1 mph   92% 0.00 in WeatherDisplay:10.37 W/m2 -RA
10:17 73.4 °F 70.9 °F 30.09 in NNW 5.1 mph   92% 0.00 in WeatherDisplay:10.37 W/m2 OVC
10:22 73.6 °F 70.8 °F 30.09 in SW 5.1 mph 5.1 mph 91% 0.00 in WeatherDisplay:10.37 W/m2 OVC
10:27 73.9 °F 71.1 °F 30.09 in SW 5.1 mph   91% 0.00 in WeatherDisplay:10.37 W/m2 OVC
10:32 74.3 °F 71.5 °F 30.09 in West 5.1 mph   91% 0.00 in WeatherDisplay:10.37 W/m2 OVC
10:37 74.5 °F 71.7 °F 30.09 in West 5.1 mph   91% 0.00 in WeatherDisplay:10.37 W/m2 OVC
10:42 74.6 °F 71.1 °F 30.09 in West 5.1 mph   89% 0.00 in WeatherDisplay:10.37 W/m2 OVC
10:47 74.6 °F 71.1 °F 30.09 in West 5.1 mph   89% 0.00 in WeatherDisplay:10.37 W/m2 OVC
10:52 74.3 °F 70.8 °F 30.10 in West 5.1 mph   89% 0.00 in WeatherDisplay:10.37 W/m2 OVC
10:57 74.3 °F 70.8 °F 30.10 in West 5.1 mph   89% 0.00 in WeatherDisplay:10.37 W/m2 OVC
10:59 74.4 °F 71.3 °F 30.10 in West 5.1 mph   90% 0.00 in WeatherDisplay:10.37 W/m2 OVC
11:04 74.6 °F 71.5 °F 30.10 in West 5.1 mph   90% 0.00 in WeatherDisplay:10.37 W/m2 OVC
11:09 74.5 °F 71.0 °F 30.10 in West 5.1 mph   89% 0.00 in WeatherDisplay:10.37 W/m2 OVC
11:14 74.4 °F 70.9 °F 30.10 in North 5.1 mph   89% 0.00 in WeatherDisplay:10.37 W/m2 OVC
11:19 74.4 °F 71.3 °F 30.10 in North 5.1 mph   90% 0.00 in WeatherDisplay:10.37 W/m2 OVC
11:24 74.4 °F 71.3 °F 30.11 in North 5.1 mph   90% 0.00 in WeatherDisplay:10.37 W/m2 OVC
11:29 74.3 °F 70.8 °F 30.11 in NNW 5.1 mph   89% 0.00 in WeatherDisplay:10.37 W/m2 OVC
11:34 74.4 °F 70.9 °F 30.11 in SSE 5.1 mph 5.1 mph 89% 0.00 in WeatherDisplay:10.37 W/m2 OVC
11:39 74.5 °F 71.0 °F 30.11 in SSE 5.1 mph   89% 0.00 in WeatherDisplay:10.37 W/m2 OVC
11:44 74.6 °F 71.1 °F 30.11 in SSE 5.1 mph   89% 0.00 in WeatherDisplay:10.37 W/m2 OVC
11:49 74.6 °F 71.1 °F 30.11 in West 5.1 mph   89% 0.00 in WeatherDisplay:10.37 W/m2 OVC
11:54 75.3 °F 71.8 °F 30.11 in WNW 5.1 mph   89% 0.00 in WeatherDisplay:10.37 W/m2 OVC
11:59 76.0 °F 72.2 °F 30.11 in West 5.1 mph   88% 0.00 in WeatherDisplay:10.37 W/m2 OVC
12:04 76.7 °F 72.2 °F 30.11 in NNW 5.1 mph   86% 0.00 in WeatherDisplay:10.37 W/m2 OVC
12:09 77.3 °F 72.4 °F 30.11 in SW 5.1 mph 5.1 mph 85% 0.00 in WeatherDisplay:10.37 W/m2 OVC
12:15 77.3 °F 72.1 °F 30.11 in NW 5.1 mph   84% 0.00 in WeatherDisplay:10.37 W/m2 OVC
12:16 77.3 °F 72.1 °F 30.11 in SW 5.1 mph 5.1 mph 84% 0.00 in WeatherDisplay:10.37 W/m2 OVC
12:21 76.8 °F 71.6 °F 30.11 in WNW 5.1 mph   84% 0.00 in WeatherDisplay:10.37 W/m2 OVC
12:26 76.3 °F 71.1 °F 30.11 in NW 5.1 mph 5.1 mph 84% 0.00 in WeatherDisplay:10.37 W/m2 OVC
12:31 75.8 °F 71.0 °F 30.11 in West 5.1 mph 5.1 mph 85% 0.00 in WeatherDisplay:10.37 W/m2 OVC
12:36 75.5 °F 71.0 °F 30.11 in WNW 5.1 mph 5.1 mph 86% 0.00 in WeatherDisplay:10.37 W/m2 OVC
12:41 75.3 °F 71.2 °F 30.11 in WNW 5.1 mph 5.1 mph 87% 0.00 in WeatherDisplay:10.37 W/m2 OVC
12:46 75.4 °F 71.6 °F 30.11 in West 5.1 mph 5.1 mph 88% 0.00 in WeatherDisplay:10.37 W/m2 BKN
12:51 76.1 °F 72.6 °F 30.10 in NW 5.1 mph   89% 0.00 in WeatherDisplay:10.37 W/m2 BKN
12:56 77.0 °F 72.5 °F 30.10 in SW 5.1 mph 5.1 mph 86% 0.00 in WeatherDisplay:10.37 W/m2 BKN
13:01 77.8 °F 72.2 °F 30.10 in WSW 5.1 mph 5.1 mph 83% 0.00 in WeatherDisplay:10.37 W/m2 BKN
13:06 78.5 °F 73.3 °F 30.10 in West 5.1 mph 5.1 mph 84% 0.00 in WeatherDisplay:10.37 W/m2 BKN
13:11 79.3 °F 73.7 °F 30.10 in WNW 5.1 mph   83% 0.00 in WeatherDisplay:10.37 W/m2 BKN
13:16 79.5 °F 72.8 °F 30.10 in SW 5.1 mph 5.1 mph 80% 0.00 in WeatherDisplay:10.37 W/m2 BKN
13:22 79.4 °F 73.1 °F 30.10 in WNW 5.1 mph   81% 0.00 in WeatherDisplay:10.37 W/m2 BKN
13:27 79.8 °F 73.4 °F 30.09 in SSW 5.1 mph 5.1 mph 81% 0.00 in WeatherDisplay:10.37 W/m2 BKN
13:32 80.3 °F 73.2 °F 30.09 in WSW 5.1 mph 5.1 mph 79% 0.00 in WeatherDisplay:10.37 W/m2 BKN
13:37 80.6 °F 72.3 °F 30.09 in NW 5.1 mph   76% 0.00 in WeatherDisplay:10.37 W/m2 BKN
13:42 80.7 °F 72.4 °F 30.09 in SW 5.1 mph 5.1 mph 76% 0.00 in WeatherDisplay:10.37 W/m2 BKN
13:47 81.1 °F 73.2 °F 30.09 in WNW 5.1 mph 5.1 mph 77% 0.00 in WeatherDisplay:10.37 W/m2 BKN
13:52 81.9 °F 74.4 °F 30.09 in NW 5.1 mph 5.1 mph 78% 0.00 in WeatherDisplay:10.37 W/m2 BKN
13:57 82.5 °F 73.0 °F 30.08 in NW 5.1 mph 5.1 mph 73% 0.00 in WeatherDisplay:10.37 W/m2 BKN
14:02 82.8 °F 72.8 °F 30.08 in WNW 5.1 mph   72% 0.00 in WeatherDisplay:10.37 W/m2 BKN
14:07 83.2 °F 73.6 °F 30.08 in West 5.1 mph 5.1 mph 73% 0.00 in WeatherDisplay:10.37 W/m2 BKN
14:12 83.7 °F 74.1 °F 30.07 in West 5.1 mph 5.1 mph 73% 0.00 in WeatherDisplay:10.37 W/m2 BKN
14:17 84.1 °F 72.8 °F 30.07 in WNW 5.1 mph 5.1 mph 69% 0.00 in WeatherDisplay:10.37 W/m2 BKN
14:21 84.2 °F 72.9 °F 30.07 in NNW 5.1 mph 5.1 mph 69% 0.00 in WeatherDisplay:10.37 W/m2 BKN
14:23 84.2 °F 73.3 °F 30.07 in NNW 5.1 mph   70% 0.00 in WeatherDisplay:10.37 W/m2 BKN
14:28 83.8 °F 72.1 °F 30.07 in NW 5.1 mph   68% 0.00 in WeatherDisplay:10.37 W/m2 BKN
14:33 83.3 °F 72.9 °F 30.07 in NW 5.1 mph 5.1 mph 71% 0.00 in WeatherDisplay:10.37 W/m2 BKN
14:38 83.4 °F 73.8 °F 30.07 in NW 5.1 mph   73% 0.00 in WeatherDisplay:10.37 W/m2 BKN
14:43 83.5 °F 72.3 °F 30.07 in NW 5.1 mph 5.1 mph 69% 0.00 in WeatherDisplay:10.37 W/m2 BKN
14:48 83.4 °F 72.2 °F 30.07 in West 5.1 mph 5.1 mph 69% 0.00 in WeatherDisplay:10.37 W/m2 BKN
14:53 83.3 °F 72.9 °F 30.06 in WNW 5.1 mph   71% 0.00 in WeatherDisplay:10.37 W/m2 BKN
14:58 83.3 °F 72.5 °F 30.06 in WNW 5.1 mph 5.1 mph 70% 0.00 in WeatherDisplay:10.37 W/m2 BKN
15:03 83.5 °F 71.8 °F 30.06 in NW 5.1 mph 5.1 mph 68% 0.00 in WeatherDisplay:10.37 W/m2 BKN
15:08 83.8 °F 73.0 °F 30.06 in West 5.1 mph   70% 0.00 in WeatherDisplay:10.37 W/m2 BKN
15:11 83.9 °F 72.6 °F 30.06 in West 5.1 mph   69% 0.00 in WeatherDisplay:10.37 W/m2 BKN
15:16 83.8 °F 72.1 °F 30.06 in NW 5.1 mph   68% 0.00 in WeatherDisplay:10.37 W/m2 BKN
15:21 83.8 °F 72.5 °F 30.05 in NW 5.1 mph   69% 0.00 in WeatherDisplay:10.37 W/m2 BKN
15:26 83.8 °F 73.0 °F 30.05 in SSE 5.1 mph   70% 0.00 in WeatherDisplay:10.37 W/m2 BKN
15:31 83.9 °F 73.1 °F 30.05 in SSE 5.1 mph   70% 0.00 in WeatherDisplay:10.37 W/m2 BKN
15:36 83.7 °F 72.4 °F 30.05 in WSW 5.1 mph   69% 0.00 in WeatherDisplay:10.37 W/m2 BKN
15:41 83.9 °F 72.6 °F 30.05 in NW 5.1 mph 5.1 mph 69% 0.00 in WeatherDisplay:10.37 W/m2 BKN
15:46 83.9 °F 72.6 °F 30.05 in WSW 5.1 mph   69% 0.00 in WeatherDisplay:10.37 W/m2 BKN
15:52 83.9 °F 72.6 °F 30.05 in SSW 5.1 mph 5.1 mph 69% 0.00 in WeatherDisplay:10.37 W/m2 BKN
15:57 84.0 °F 71.9 °F 30.05 in SW 5.1 mph 5.1 mph 67% 0.00 in WeatherDisplay:10.37 W/m2 BKN
16:02 84.1 °F 71.5 °F 30.05 in WSW 5.1 mph 5.1 mph 66% 0.00 in WeatherDisplay:10.37 W/m2 BKN
16:07 83.8 °F 71.7 °F 30.05 in West 5.1 mph   67% 0.00 in WeatherDisplay:10.37 W/m2 BKN
16:12 83.7 °F 72.4 °F 30.05 in West 5.1 mph   69% 0.00 in WeatherDisplay:10.37 W/m2 BKN
16:17 83.7 °F 71.6 °F 30.05 in North 5.1 mph   67% 0.00 in WeatherDisplay:10.37 W/m2 BKN
16:22 83.7 °F 72.0 °F 30.04 in WSW 5.1 mph 5.1 mph 68% 0.00 in WeatherDisplay:10.37 W/m2 BKN
16:27 83.8 °F 71.7 °F 30.04 in SW 5.1 mph 5.1 mph 67% 0.00 in WeatherDisplay:10.37 W/m2 BKN
16:32 84.1 °F 72.4 °F 30.04 in NW 5.1 mph   68% 0.00 in WeatherDisplay:10.37 W/m2 BKN
16:37 84.1 °F 71.5 °F 30.04 in West 5.1 mph   66% 0.00 in WeatherDisplay:10.37 W/m2 BKN
16:42 84.1 °F 72.0 °F 30.04 in WNW 5.1 mph   67% 0.00 in WeatherDisplay:10.37 W/m2 BKN
16:47 84.4 °F 71.8 °F 30.04 in West 5.1 mph 5.1 mph 66% 0.00 in WeatherDisplay:10.37 W/m2 BKN
16:52 84.5 °F 72.3 °F 30.03 in West 5.1 mph   67% 0.00 in WeatherDisplay:10.37 W/m2 BKN
16:57 84.5 °F 72.3 °F 30.03 in NNW 5.1 mph 5.1 mph 67% 0.00 in WeatherDisplay:10.37 W/m2 BKN
17:02 84.3 °F 72.1 °F 30.03 in NNW 5.1 mph   67% 0.00 in WeatherDisplay:10.37 W/m2 BKN
17:07 84.1 °F 72.0 °F 30.03 in NW 5.1 mph 5.1 mph 67% 0.00 in WeatherDisplay:10.37 W/m2 BKN
17:12 83.8 °F 72.1 °F 30.03 in West 5.1 mph   68% 0.00 in WeatherDisplay:10.37 W/m2 BKN
17:17 83.5 °F 72.7 °F 30.03 in West 5.1 mph 5.1 mph 70% 0.00 in WeatherDisplay:10.37 W/m2 SCT
17:23 83.8 °F 73.0 °F 30.03 in SW 5.1 mph 5.1 mph 70% 0.00 in WeatherDisplay:10.37 W/m2 SCT
17:28 84.2 °F 72.5 °F 30.03 in WSW 5.1 mph 5.1 mph 68% 0.00 in WeatherDisplay:10.37 W/m2 SCT
17:33 84.2 °F 72.9 °F 30.03 in West 5.1 mph   69% 0.00 in WeatherDisplay:10.37 W/m2 SCT
17:38 84.0 °F 72.3 °F 30.03 in West 5.1 mph   68% 0.00 in WeatherDisplay:10.37 W/m2 SCT
17:43 83.8 °F 73.0 °F 30.03 in WNW 5.1 mph 5.1 mph 70% 0.00 in WeatherDisplay:10.37 W/m2 SCT
17:48 83.6 °F 73.2 °F 30.03 in WNW 5.1 mph   71% 0.00 in WeatherDisplay:10.37 W/m2 SCT
17:53 83.5 °F 73.5 °F 30.03 in WNW 5.1 mph   72% 0.00 in WeatherDisplay:10.37 W/m2 SCT
17:58 83.4 °F 72.6 °F 30.03 in WNW 5.1 mph   70% 0.00 in WeatherDisplay:10.37 W/m2 SCT
18:03 83.6 °F 71.9 °F 30.03 in WNW 5.1 mph 5.1 mph 68% 0.00 in WeatherDisplay:10.37 W/m2 SCT
18:08 83.6 °F 71.9 °F 30.03 in WNW 5.1 mph   68% 0.00 in WeatherDisplay:10.37 W/m2 SCT
18:13 83.6 °F 72.3 °F 30.03 in WNW 5.1 mph   69% 0.00 in WeatherDisplay:10.37 W/m2 SCT
18:18 83.4 °F 72.2 °F 30.03 in WNW 5.1 mph 5.1 mph 69% 0.00 in WeatherDisplay:10.37 W/m2 BKN
18:23 83.2 °F 72.4 °F 30.03 in WNW 5.1 mph   70% 0.00 in WeatherDisplay:10.37 W/m2 BKN
18:28 82.8 °F 71.6 °F 30.03 in West 5.1 mph   69% 0.00 in WeatherDisplay:10.37 W/m2 BKN
18:33 82.7 °F 72.7 °F 30.03 in WNW 5.1 mph 5.1 mph 72% 0.00 in WeatherDisplay:10.37 W/m2 BKN
18:39 82.7 °F 72.3 °F 30.04 in WSW 5.1 mph   71% 0.00 in WeatherDisplay:10.37 W/m2 BKN
18:44 82.6 °F 73.1 °F 30.03 in WNW 5.1 mph 5.1 mph 73% 0.00 in WeatherDisplay:10.37 W/m2 BKN
18:49 82.4 °F 72.0 °F 30.04 in WNW 5.1 mph   71% 0.00 in WeatherDisplay:10.37 W/m2 BKN
18:54 82.2 °F 72.7 °F 30.04 in WNW 5.1 mph   73% 0.00 in WeatherDisplay:10.37 W/m2 BKN
18:59 81.9 °F 71.6 °F 30.04 in WNW 5.1 mph   71% 0.00 in WeatherDisplay:10.37 W/m2 BKN
19:04 81.9 °F 72.4 °F 30.04 in WNW 5.1 mph   73% 0.00 in WeatherDisplay:10.37 W/m2 BKN
19:09 81.9 °F 72.8 °F 30.04 in WNW 5.1 mph   74% 0.00 in WeatherDisplay:10.37 W/m2 BKN
19:14 81.7 °F 72.2 °F 30.05 in WNW 5.1 mph   73% 0.00 in WeatherDisplay:10.37 W/m2 BKN
19:19 81.7 °F 72.2 °F 30.05 in WNW 5.1 mph   73% 0.00 in WeatherDisplay:10.37 W/m2 SCT
19:24 81.5 °F 72.0 °F 30.05 in WNW 5.1 mph   73% 0.00 in WeatherDisplay:10.37 W/m2 SCT
19:29 81.4 °F 71.9 °F 30.05 in WNW 5.1 mph   73% 0.00 in WeatherDisplay:10.37 W/m2 SCT
19:34 81.3 °F 72.2 °F 30.05 in WNW 5.1 mph   74% 0.00 in WeatherDisplay:10.37 W/m2 SCT
19:39 81.2 °F 71.3 °F 30.05 in WNW 5.1 mph 5.1 mph 72% 0.00 in WeatherDisplay:10.37 W/m2 SCT
19:44 81.2 °F 72.1 °F 30.05 in WNW 5.1 mph 5.1 mph 74% 0.00 in WeatherDisplay:10.37 W/m2 SCT
19:49 81.0 °F 71.5 °F 30.05 in WNW 5.1 mph   73% 0.00 in WeatherDisplay:10.37 W/m2 SCT
19:55 80.8 °F 71.3 °F 30.05 in WNW 5.1 mph   73% 0.00 in WeatherDisplay:10.37 W/m2 SCT
20:00 80.7 °F 72.0 °F 30.05 in Calm   1.0 mph 75% 0.00 in WeatherDisplay:10.37 W/m2 SCT
20:05 80.4 °F 71.7 °F 30.05 in Calm   1.0 mph 75% 0.00 in WeatherDisplay:10.37 W/m2 SCT
20:10 80.2 °F 71.6 °F 30.06 in Calm   1.0 mph 75% 0.00 in WeatherDisplay:10.37 W/m2 SCT
20:15 80.0 °F 71.3 °F 30.06 in Calm     75% 0.00 in WeatherDisplay:10.37 W/m2 SCT
20:20 79.8 °F 71.5 °F 30.06 in Calm     76% 0.00 in WeatherDisplay:10.37 W/m2 SCT
20:25 79.6 °F 71.4 °F 30.06 in Calm     76% 0.00 in WeatherDisplay:10.37 W/m2 SCT
20:30 79.4 °F 71.6 °F 30.05 in WNW 5.1 mph   77% 0.00 in WeatherDisplay:10.37 W/m2 SCT
20:35 79.2 °F 71.4 °F 30.05 in Calm     77% 0.00 in WeatherDisplay:10.37 W/m2 SCT
20:40 78.9 °F 71.1 °F 30.05 in Calm     77% 0.00 in WeatherDisplay:10.37 W/m2 SCT
20:41 78.8 °F 71.0 °F 30.05 in WNW 5.1 mph   77% 0.00 in WeatherDisplay:10.37 W/m2 SCT
20:46 78.6 °F 71.2 °F 30.05 in WNW 5.1 mph   78% 0.00 in WeatherDisplay:10.37 W/m2 SCT
20:51 78.4 °F 71.0 °F 30.05 in WNW 5.1 mph 5.1 mph 78% 0.00 in WeatherDisplay:10.37 W/m2 SCT
20:56 78.1 °F 71.1 °F 30.05 in WNW 5.1 mph   79% 0.00 in WeatherDisplay:10.37 W/m2 SCT
21:01 77.8 °F 70.4 °F 30.05 in SW 5.1 mph 5.1 mph 78% 0.00 in WeatherDisplay:10.37 W/m2 SCT
21:06 77.7 °F 71.0 °F 30.05 in West 5.1 mph   80% 0.00 in WeatherDisplay:10.37 W/m2 SCT
21:11 77.7 °F 70.3 °F 30.05 in NW 5.1 mph   78% 0.00 in WeatherDisplay:10.37 W/m2 SCT
21:16 77.9 °F 70.5 °F 30.05 in NW 5.1 mph   78% 0.00 in WeatherDisplay:10.37 W/m2 SCT
21:21 77.8 °F 70.4 °F 30.05 in NW 5.1 mph   78% 0.00 in WeatherDisplay:10.37 W/m2 SCT
21:26 77.7 °F 69.9 °F 30.05 in NW 5.1 mph   77% 0.00 in WeatherDisplay:10.37 W/m2 SCT
21:31 77.7 °F 70.7 °F 30.05 in NW 5.1 mph   79% 0.00 in WeatherDisplay:10.37 W/m2 SCT
21:36 77.6 °F 70.6 °F 30.04 in NW 5.1 mph   79% 0.00 in WeatherDisplay:10.37 W/m2 SCT
21:41 77.4 °F 70.7 °F 30.04 in NW 5.1 mph   80% 0.00 in WeatherDisplay:10.37 W/m2 SCT
21:46 77.2 °F 69.0 °F 30.05 in NW 5.1 mph   76% 0.00 in WeatherDisplay:10.37 W/m2 SCT
21:51 77.4 °F 68.9 °F 30.05 in NNW 5.1 mph   75% 0.00 in WeatherDisplay:10.37 W/m2 SCT
21:57 77.5 °F 68.9 °F 30.06 in NNW 5.1 mph   75% 0.00 in WeatherDisplay:10.37 W/m2 SCT
22:02 77.5 °F 69.3 °F 30.06 in NNW 5.1 mph   76% 0.00 in WeatherDisplay:10.37 W/m2 SCT
22:07 77.3 °F 69.5 °F 30.07 in NNW 5.1 mph   77% 0.00 in WeatherDisplay:10.37 W/m2 SCT
22:12 77.1 °F 68.9 °F 30.06 in NNW 5.1 mph   76% 0.00 in WeatherDisplay:10.37 W/m2 SCT
22:17 76.9 °F 69.1 °F 30.07 in NNW 5.1 mph   77% 0.00 in WeatherDisplay:10.37 W/m2 BKN
22:22 76.8 °F 69.4 °F 30.07 in NNW 5.1 mph   78% 0.00 in WeatherDisplay:10.37 W/m2 BKN
22:27 76.6 °F 68.8 °F 30.07 in NNW 5.1 mph   77% 0.00 in WeatherDisplay:10.37 W/m2 BKN
22:32 76.4 °F 69.0 °F 30.06 in NNW 5.1 mph   78% 0.00 in WeatherDisplay:10.37 W/m2 BKN
22:37 76.2 °F 68.8 °F 30.07 in NNW 5.1 mph   78% 0.00 in WeatherDisplay:10.37 W/m2 BKN
22:42 75.9 °F 68.5 °F 30.07 in NNW 5.1 mph   78% 0.00 in WeatherDisplay:10.37 W/m2 BKN
22:47 75.8 °F 68.8 °F 30.07 in NNW 5.1 mph   79% 0.00 in WeatherDisplay:10.37 W/m2 BKN
22:52 75.6 °F 69.0 °F 30.07 in NNW 5.1 mph   80% 0.00 in WeatherDisplay:10.37 W/m2 BKN
22:58 75.5 °F 68.5 °F 30.07 in NNW 5.1 mph   79% 0.00 in WeatherDisplay:10.37 W/m2 BKN
23:03 75.4 °F 68.8 °F 30.08 in NNW 5.1 mph   80% 0.00 in WeatherDisplay:10.37 W/m2 BKN
23:08 75.3 °F 68.7 °F 30.07 in NNW 5.1 mph   80% 0.00 in WeatherDisplay:10.37 W/m2 BKN
23:13 75.2 °F 68.6 °F 30.07 in NNW 5.1 mph   80% 0.00 in WeatherDisplay:10.37 W/m2 BKN
23:18 75.2 °F 68.6 °F 30.07 in North 5.1 mph   80% 0.00 in WeatherDisplay:10.37 W/m2 BKN
23:23 75.1 °F 68.9 °F 30.07 in North 5.1 mph   81% 0.00 in WeatherDisplay:10.37 W/m2 BKN
23:27 75.1 °F 68.5 °F 30.07 in North 5.1 mph   80% 0.00 in WeatherDisplay:10.37 W/m2 BKN
23:32 75.0 °F 68.8 °F 30.07 in North 5.1 mph   81% 0.00 in WeatherDisplay:10.37 W/m2 BKN
23:37 74.9 °F 68.7 °F 30.06 in North 5.1 mph   81% 0.00 in WeatherDisplay:10.37 W/m2 BKN
23:42 74.7 °F 68.5 °F 30.06 in North 5.1 mph   81% 0.00 in WeatherDisplay:10.37 W/m2 BKN
23:47 74.6 °F 68.7 °F 30.06 in North 5.1 mph   82% 0.00 in WeatherDisplay:10.37 W/m2 BKN
23:53 74.4 °F 68.5 °F 30.06 in North 5.1 mph   82% 0.00 in WeatherDisplay:10.37 W/m2 BKN
23:58 74.1 °F 68.3 °F 30.06 in North 5.1 mph   82% 0.00 in WeatherDisplay:10.37 W/m2 BKN
Piedmont Bend
Compliments of Weather Underground - 4 mb